createdAt,value
2017-08-23T00:00:30.400Z,17.40
2017-08-23T00:02:57.949Z,17.30
2017-08-23T00:05:25.866Z,17.30
2017-08-23T00:07:53.335Z,17.30
2017-08-23T00:10:20.967Z,17.20
2017-08-23T00:12:48.462Z,17.20
2017-08-23T00:15:15.950Z,17.20
2017-08-23T00:17:44.857Z,17.20
2017-08-23T00:20:12.312Z,17.20
2017-08-23T00:22:39.803Z,17.20
2017-08-23T00:25:07.302Z,17.10
2017-08-23T00:27:34.786Z,17.10
2017-08-23T00:30:02.257Z,17.10
2017-08-23T00:32:29.834Z,17.10
2017-08-23T00:34:57.304Z,17.00
2017-08-23T00:37:24.818Z,17.00
2017-08-23T00:39:52.338Z,17.00
2017-08-23T00:42:19.849Z,16.90
2017-08-23T00:44:47.608Z,16.90
2017-08-23T00:47:15.904Z,16.90
2017-08-23T00:49:43.370Z,16.80
2017-08-23T00:52:10.913Z,16.80
2017-08-23T00:54:38.440Z,16.80
2017-08-23T00:57:05.907Z,16.80
2017-08-23T00:59:33.374Z,16.80
2017-08-23T01:02:00.847Z,16.80
2017-08-23T01:04:28.718Z,16.80
2017-08-23T01:06:56.249Z,16.80
2017-08-23T01:09:23.750Z,16.80
2017-08-23T01:11:51.266Z,16.70
2017-08-23T01:14:19.030Z,16.70
2017-08-23T01:16:46.622Z,16.70
2017-08-23T01:19:14.207Z,16.70
2017-08-23T01:21:41.778Z,16.70
2017-08-23T01:24:09.284Z,16.70
2017-08-23T01:26:36.857Z,16.60
2017-08-23T01:29:04.572Z,16.60
2017-08-23T01:31:32.090Z,16.60
2017-08-23T01:33:59.547Z,16.60
2017-08-23T01:36:27.087Z,16.60
2017-08-23T01:38:54.546Z,16.50
2017-08-23T01:41:22.174Z,16.50
2017-08-23T01:43:49.839Z,16.50
2017-08-23T01:46:17.399Z,16.50
2017-08-23T01:48:44.883Z,16.50
2017-08-23T01:51:12.824Z,16.40
2017-08-23T01:53:40.331Z,16.40
2017-08-23T01:56:07.858Z,16.40
2017-08-23T01:58:35.370Z,16.40
2017-08-23T02:01:02.878Z,16.40
2017-08-23T02:03:30.448Z,16.40
2017-08-23T02:06:00.998Z,16.40
2017-08-23T02:08:28.545Z,16.40
2017-08-23T02:10:56.160Z,16.40
2017-08-23T02:13:23.702Z,16.40
2017-08-23T02:15:51.251Z,16.40
2017-08-23T02:18:18.822Z,16.40
2017-08-23T02:20:46.348Z,16.40
2017-08-23T02:23:13.813Z,16.40
2017-08-23T02:25:41.384Z,16.40
2017-08-23T02:28:08.836Z,16.40
2017-08-23T02:30:36.317Z,16.30
2017-08-23T02:33:03.863Z,16.30
2017-08-23T02:35:31.382Z,16.30
2017-08-23T02:37:59.146Z,16.30
2017-08-23T02:40:26.889Z,16.30
2017-08-23T02:42:54.428Z,16.30
2017-08-23T02:45:21.931Z,16.30
2017-08-23T02:47:49.416Z,16.30
2017-08-23T02:50:16.917Z,16.30
2017-08-23T02:55:18.511Z,16.20
2017-08-23T02:57:46.015Z,16.20
2017-08-23T03:00:13.499Z,16.20
2017-08-23T03:02:41.288Z,16.20
2017-08-23T03:05:08.859Z,16.20
2017-08-23T03:07:36.796Z,16.20
2017-08-23T03:10:05.072Z,16.10
2017-08-23T03:12:32.620Z,16.10
2017-08-23T03:15:00.107Z,16.10
2017-08-23T03:17:27.583Z,16.10
2017-08-23T03:19:55.095Z,16.10
2017-08-23T03:22:22.556Z,16.10
2017-08-23T03:24:50.185Z,16.00
2017-08-23T03:27:17.748Z,16.00
2017-08-23T03:29:45.222Z,16.00
2017-08-23T03:32:13.044Z,16.00
2017-08-23T03:34:40.542Z,16.00
2017-08-23T03:37:08.039Z,16.00
2017-08-23T03:39:35.724Z,16.00
2017-08-23T03:42:03.180Z,16.00
2017-08-23T03:44:30.755Z,15.90
2017-08-23T03:46:58.252Z,15.90
2017-08-23T03:49:25.727Z,15.90
2017-08-23T03:51:53.518Z,15.90
2017-08-23T03:54:20.963Z,15.90
2017-08-23T03:56:48.418Z,15.80
2017-08-23T03:59:16.812Z,15.80
2017-08-23T04:01:44.301Z,15.80
2017-08-23T04:04:11.859Z,15.80
2017-08-23T04:06:39.419Z,15.80
2017-08-23T04:09:07.318Z,15.80
2017-08-23T04:11:34.851Z,15.80
2017-08-23T04:14:02.365Z,15.80
2017-08-23T04:16:29.864Z,15.80
2017-08-23T04:18:57.457Z,15.80
2017-08-23T04:21:24.956Z,15.80
2017-08-23T04:23:52.438Z,15.80
2017-08-23T04:26:20.108Z,15.80
2017-08-23T04:28:47.699Z,15.80
2017-08-23T04:31:15.140Z,15.90
2017-08-23T04:33:42.697Z,15.90
2017-08-23T04:36:10.157Z,15.90
2017-08-23T04:38:37.608Z,16.00
2017-08-23T04:41:05.300Z,16.00
2017-08-23T04:43:32.915Z,16.00
2017-08-23T04:46:00.809Z,16.10
2017-08-23T04:48:28.568Z,16.20
2017-08-23T04:50:56.044Z,16.20
2017-08-23T04:53:23.511Z,16.20
2017-08-23T04:55:51.207Z,16.30
2017-08-23T04:58:18.654Z,16.30
2017-08-23T05:00:46.110Z,16.40
2017-08-23T05:03:13.894Z,16.40
2017-08-23T05:05:41.349Z,16.50
2017-08-23T05:08:08.800Z,16.50
2017-08-23T05:10:36.326Z,16.60
2017-08-23T05:13:03.831Z,16.60
2017-08-23T05:15:31.307Z,16.70
2017-08-23T05:17:58.731Z,16.70
2017-08-23T05:20:26.320Z,16.70
2017-08-23T05:22:53.791Z,16.80
2017-08-23T05:25:21.376Z,16.80
2017-08-23T05:27:48.847Z,16.90
2017-08-23T05:30:18.200Z,16.90
2017-08-23T05:32:45.731Z,16.90
2017-08-23T05:35:13.161Z,16.90
2017-08-23T05:37:40.631Z,16.90
2017-08-23T05:40:08.134Z,17.00
2017-08-23T05:42:35.631Z,17.00
2017-08-23T05:45:03.095Z,17.00
2017-08-23T05:47:32.440Z,17.00
2017-08-23T05:49:59.932Z,17.10
2017-08-23T05:52:27.416Z,17.10
2017-08-23T05:54:55.226Z,17.10
2017-08-23T05:57:23.387Z,17.20
2017-08-23T05:59:50.891Z,17.20
2017-08-23T06:02:18.426Z,17.30
2017-08-23T06:04:45.900Z,17.30
2017-08-23T06:07:13.421Z,17.40
2017-08-23T06:09:40.986Z,17.40
2017-08-23T06:12:09.063Z,17.50
2017-08-23T06:14:36.781Z,17.60
2017-08-23T06:17:04.316Z,17.70
2017-08-23T06:19:31.859Z,17.80
2017-08-23T06:21:59.452Z,17.80
2017-08-23T06:24:26.908Z,17.90
2017-08-23T06:26:54.795Z,18.10
2017-08-23T06:29:22.357Z,18.10
2017-08-23T06:31:49.870Z,18.10
2017-08-23T06:34:17.334Z,18.20
2017-08-23T06:36:45.024Z,18.20
2017-08-23T06:39:12.512Z,18.20
2017-08-23T06:41:40.019Z,18.30
2017-08-23T06:44:08.032Z,18.30
2017-08-23T06:46:35.535Z,18.40
2017-08-23T06:49:02.967Z,18.40
2017-08-23T06:51:30.701Z,18.40
2017-08-23T06:53:58.195Z,18.50
2017-08-23T06:56:25.668Z,18.50
2017-08-23T06:58:53.136Z,18.60
2017-08-23T07:01:20.840Z,18.70
2017-08-23T07:03:48.410Z,18.70
2017-08-23T07:06:15.860Z,18.80
2017-08-23T07:08:43.325Z,18.80
2017-08-23T07:11:10.855Z,18.80
2017-08-23T07:13:38.310Z,18.80
2017-08-23T07:16:05.727Z,18.90
2017-08-23T07:18:33.397Z,18.90
2017-08-23T07:21:00.869Z,19.00
2017-08-23T07:23:28.339Z,19.00
2017-08-23T07:25:56.122Z,19.00
2017-08-23T07:28:23.614Z,19.00
2017-08-23T07:30:51.107Z,19.00
2017-08-23T07:33:18.670Z,19.10
2017-08-23T07:35:46.182Z,19.00
2017-08-23T07:38:13.659Z,19.10
2017-08-23T07:40:41.283Z,19.10
2017-08-23T07:43:08.789Z,19.20
2017-08-23T07:45:36.292Z,19.20
2017-08-23T07:48:03.873Z,19.20
2017-08-23T07:50:31.381Z,19.20
2017-08-23T07:52:58.833Z,19.30
2017-08-23T07:55:26.353Z,19.30
2017-08-23T07:57:53.815Z,19.40
2017-08-23T08:00:21.289Z,19.40
2017-08-23T08:02:48.811Z,19.40
2017-08-23T08:05:16.284Z,19.50
2017-08-23T08:07:43.823Z,19.50
2017-08-23T08:12:45.513Z,19.60
2017-08-23T08:15:13.382Z,19.70
2017-08-23T08:17:41.180Z,19.70
2017-08-23T08:20:09.237Z,19.70
2017-08-23T08:22:36.747Z,19.70
2017-08-23T08:25:04.647Z,19.70
2017-08-23T08:27:32.196Z,19.80
2017-08-23T08:29:59.701Z,19.90
2017-08-23T08:32:27.192Z,20.00
2017-08-23T08:34:54.928Z,20.10
2017-08-23T08:37:22.436Z,20.10
2017-08-23T08:39:50.579Z,20.20
2017-08-23T08:42:18.045Z,20.30
2017-08-23T08:44:45.521Z,20.30
2017-08-23T08:47:13.031Z,20.30
2017-08-23T08:49:40.479Z,20.40
2017-08-23T08:52:07.958Z,20.60
2017-08-23T08:54:35.634Z,20.60
2017-08-23T08:57:03.287Z,20.70
2017-08-23T08:59:30.773Z,20.80
2017-08-23T09:01:58.426Z,20.80
2017-08-23T09:04:25.920Z,20.90
2017-08-23T09:06:53.382Z,21.00
2017-08-23T09:09:20.879Z,21.10
2017-08-23T09:11:48.365Z,21.10
2017-08-23T09:14:15.893Z,21.20
2017-08-23T09:16:43.551Z,21.30
2017-08-23T09:19:11.148Z,21.50
2017-08-23T09:21:38.598Z,21.70
2017-08-23T09:24:06.092Z,21.80
2017-08-23T09:26:33.598Z,22.00
2017-08-23T09:29:01.066Z,22.20
2017-08-23T09:31:28.727Z,22.40
2017-08-23T09:33:56.241Z,22.70
2017-08-23T09:36:23.725Z,23.00
2017-08-23T09:38:51.407Z,23.30
2017-08-23T09:41:18.891Z,23.60
2017-08-23T09:43:46.360Z,24.00
2017-08-23T09:46:13.865Z,24.50
2017-08-23T09:48:41.332Z,25.00
2017-08-23T09:51:08.779Z,25.40
2017-08-23T09:53:36.273Z,25.90
2017-08-23T09:56:03.746Z,26.40
2017-08-23T09:58:31.330Z,26.90
2017-08-23T10:00:58.909Z,27.40
2017-08-23T10:03:26.370Z,27.80
2017-08-23T10:05:54.117Z,28.00
2017-08-23T10:08:22.479Z,28.10
2017-08-23T10:10:49.953Z,28.20
2017-08-23T10:13:17.477Z,28.10
2017-08-23T10:15:44.926Z,27.80
2017-08-23T10:18:12.449Z,27.60
2017-08-23T10:20:39.916Z,27.40
2017-08-23T10:23:07.415Z,27.20
2017-08-23T10:25:35.185Z,26.90
2017-08-23T10:28:02.669Z,26.60
2017-08-23T10:30:30.274Z,26.40
2017-08-23T10:32:57.992Z,26.10
2017-08-23T10:35:25.453Z,25.90
2017-08-23T10:37:52.963Z,25.60
2017-08-23T10:40:20.669Z,25.40
2017-08-23T10:42:48.130Z,25.30
2017-08-23T10:45:15.779Z,25.20
2017-08-23T10:47:43.298Z,25.00
2017-08-23T10:50:10.774Z,25.00
2017-08-23T10:52:38.246Z,24.80
2017-08-23T10:55:05.770Z,24.80
2017-08-23T10:57:33.250Z,24.80
2017-08-23T11:00:00.749Z,24.80
2017-08-23T11:02:28.514Z,24.80
2017-08-23T11:04:56.009Z,24.80
2017-08-23T11:07:23.475Z,24.80
2017-08-23T11:09:50.983Z,24.80
2017-08-23T11:12:18.504Z,24.80
2017-08-23T11:14:45.904Z,24.80
2017-08-23T11:17:13.881Z,24.70
2017-08-23T11:19:41.411Z,24.60
2017-08-23T11:22:08.918Z,24.60
2017-08-23T11:24:36.520Z,24.60
2017-08-23T11:27:03.971Z,24.60
2017-08-23T11:29:31.419Z,24.60
2017-08-23T11:31:59.009Z,24.60
2017-08-23T11:34:26.520Z,24.60
2017-08-23T11:36:54.042Z,24.60
2017-08-23T11:39:22.585Z,24.60
2017-08-23T11:41:50.038Z,24.60
2017-08-23T11:44:17.741Z,24.70
2017-08-23T11:46:45.197Z,24.80
2017-08-23T11:49:12.684Z,24.80
2017-08-23T11:51:40.245Z,24.80
2017-08-23T11:54:07.689Z,24.80
2017-08-23T11:56:35.242Z,24.80
2017-08-23T11:59:02.722Z,24.90
2017-08-23T12:01:30.269Z,24.90
2017-08-23T12:03:57.792Z,24.90
2017-08-23T12:06:25.324Z,24.90
2017-08-23T12:08:52.811Z,24.90
2017-08-23T12:11:20.333Z,25.00
2017-08-23T12:13:47.805Z,25.00
2017-08-23T12:16:15.361Z,25.00
2017-08-23T12:18:42.913Z,25.10
2017-08-23T12:21:10.517Z,25.10
2017-08-23T12:23:38.438Z,25.20
2017-08-23T12:26:06.015Z,25.20
2017-08-23T12:28:33.577Z,25.30
2017-08-23T12:31:01.115Z,25.30
2017-08-23T12:33:28.735Z,25.30
2017-08-23T12:35:56.413Z,25.40
2017-08-23T12:38:23.962Z,25.40
2017-08-23T12:40:51.539Z,25.50
2017-08-23T12:43:20.741Z,25.50
2017-08-23T12:45:48.261Z,25.60
2017-08-23T12:48:16.013Z,25.60
2017-08-23T12:50:43.497Z,25.70
2017-08-23T12:53:11.153Z,25.70
2017-08-23T12:55:38.680Z,25.70
2017-08-23T12:58:06.192Z,25.80
2017-08-23T13:00:33.740Z,25.70
2017-08-23T13:03:01.446Z,25.80
2017-08-23T13:05:28.966Z,25.90
2017-08-23T13:07:56.543Z,25.90
2017-08-23T13:10:24.266Z,26.00
2017-08-23T13:12:51.943Z,26.00
2017-08-23T13:15:19.596Z,26.00
2017-08-23T13:17:47.153Z,26.00
2017-08-23T13:20:15.404Z,26.10
2017-08-23T13:22:43.258Z,26.10
2017-08-23T13:25:10.818Z,26.10
2017-08-23T13:27:38.357Z,26.10
2017-08-23T13:30:05.944Z,26.10
2017-08-23T13:32:33.427Z,26.20
2017-08-23T13:35:00.935Z,26.20
2017-08-23T13:37:28.678Z,26.20
2017-08-23T13:39:56.146Z,26.20
2017-08-23T13:42:24.627Z,26.20
2017-08-23T13:44:52.327Z,26.20
2017-08-23T13:47:19.937Z,26.20
2017-08-23T13:49:47.528Z,26.20
2017-08-23T13:52:15.134Z,26.20
2017-08-23T13:54:42.629Z,26.30
2017-08-23T13:57:10.416Z,26.30
2017-08-23T13:59:38.216Z,26.30
2017-08-23T14:02:05.936Z,26.30
2017-08-23T14:04:33.717Z,26.40
2017-08-23T14:07:01.258Z,26.40
2017-08-23T14:09:28.788Z,26.50
2017-08-23T14:11:56.870Z,26.50
2017-08-23T14:14:24.317Z,26.60
2017-08-23T14:16:51.776Z,26.50
2017-08-23T14:19:20.379Z,26.60
2017-08-23T14:21:47.911Z,26.60
2017-08-23T14:24:15.565Z,26.70
2017-08-23T14:26:43.069Z,26.70
2017-08-23T14:29:10.703Z,26.80
2017-08-23T14:31:38.119Z,26.80
2017-08-23T14:34:05.978Z,26.90
2017-08-23T14:36:34.484Z,26.90
2017-08-23T14:39:01.997Z,26.90
2017-08-23T14:41:29.674Z,27.00
2017-08-23T14:43:57.262Z,27.00
2017-08-23T14:46:25.016Z,27.10
2017-08-23T14:48:52.598Z,27.10
2017-08-23T14:51:20.175Z,27.20
2017-08-23T14:53:47.707Z,27.20
2017-08-23T14:56:15.598Z,27.20
2017-08-23T14:58:43.151Z,27.20
2017-08-23T15:01:10.677Z,27.30
2017-08-23T15:03:38.383Z,27.30
2017-08-23T15:06:06.044Z,27.40
2017-08-23T15:08:33.519Z,27.40
2017-08-23T15:11:01.104Z,27.40
2017-08-23T15:13:28.504Z,27.40
2017-08-23T15:15:56.504Z,27.40
2017-08-23T15:18:24.033Z,27.40
2017-08-23T15:20:51.628Z,27.40
2017-08-23T15:23:19.218Z,27.50
2017-08-23T15:25:46.813Z,27.50
2017-08-23T15:28:16.216Z,27.50
2017-08-23T15:30:43.789Z,27.50
2017-08-23T15:33:11.395Z,27.60
2017-08-23T15:35:38.987Z,27.60
2017-08-23T15:38:06.544Z,27.60
2017-08-23T15:40:34.148Z,27.60
2017-08-23T15:43:01.674Z,27.60
2017-08-23T15:45:29.521Z,27.60
2017-08-23T15:47:57.244Z,27.60
2017-08-23T15:50:24.859Z,27.50
2017-08-23T15:52:52.416Z,27.50
2017-08-23T15:55:19.961Z,27.50
2017-08-23T15:57:47.683Z,27.50
2017-08-23T16:00:15.187Z,27.40
2017-08-23T16:02:42.809Z,27.40
2017-08-23T16:05:11.289Z,27.40
2017-08-23T16:07:39.918Z,27.40
2017-08-23T16:10:07.407Z,27.40
2017-08-23T16:12:35.359Z,27.40
2017-08-23T16:15:03.569Z,27.40
2017-08-23T16:17:31.783Z,27.40
2017-08-23T16:19:59.421Z,27.40
2017-08-23T16:22:26.939Z,27.40
2017-08-23T16:24:54.961Z,27.40
2017-08-23T16:27:23.311Z,27.40
2017-08-23T16:29:51.672Z,27.40
2017-08-23T16:32:19.334Z,27.40
2017-08-23T16:34:47.221Z,27.30
2017-08-23T16:37:15.258Z,27.30
2017-08-23T16:39:43.276Z,27.30
2017-08-23T16:42:11.152Z,27.30
2017-08-23T16:44:39.377Z,27.30
2017-08-23T16:47:07.558Z,27.20
2017-08-23T16:49:35.189Z,27.20
2017-08-23T16:52:02.972Z,27.20
2017-08-23T16:54:31.096Z,27.20
2017-08-23T16:56:58.646Z,27.10
2017-08-23T16:59:26.415Z,27.10
2017-08-23T17:01:54.700Z,27.10
2017-08-23T17:04:22.495Z,27.10
2017-08-23T17:06:50.318Z,27.10
2017-08-23T17:09:18.684Z,27.10
2017-08-23T17:11:46.788Z,27.00
2017-08-23T17:14:14.960Z,27.00
2017-08-23T17:16:42.561Z,27.00
2017-08-23T17:19:10.422Z,26.90
2017-08-23T17:21:38.600Z,26.90
2017-08-23T17:24:06.062Z,26.90
2017-08-23T17:26:33.560Z,26.80
2017-08-23T17:29:01.538Z,26.80
2017-08-23T17:31:29.099Z,26.80
2017-08-23T17:33:56.767Z,26.70
2017-08-23T17:36:25.349Z,26.70
2017-08-23T17:38:53.104Z,26.60
2017-08-23T17:41:20.872Z,26.50
2017-08-23T17:43:48.578Z,26.50
2017-08-23T17:46:16.164Z,26.40
2017-08-23T17:48:43.821Z,26.30
2017-08-23T17:51:11.473Z,26.20
2017-08-23T17:53:39.172Z,26.10
2017-08-23T17:56:06.920Z,26.00
2017-08-23T17:58:34.486Z,25.90
2017-08-23T18:01:02.031Z,25.80
2017-08-23T18:03:29.558Z,25.70
2017-08-23T18:05:57.095Z,25.60
2017-08-23T18:08:24.716Z,25.60
2017-08-23T18:10:53.204Z,25.50
2017-08-23T18:13:20.917Z,25.40
2017-08-23T18:15:48.468Z,25.30
2017-08-23T18:18:15.961Z,25.30
2017-08-23T18:20:43.472Z,25.20
2017-08-23T18:23:11.263Z,25.10
2017-08-23T18:25:40.275Z,25.00
2017-08-23T18:28:07.746Z,25.00
2017-08-23T18:30:35.242Z,24.90
2017-08-23T18:33:02.770Z,24.90
2017-08-23T18:35:30.230Z,24.80
2017-08-23T18:37:57.699Z,24.80
2017-08-23T18:40:25.382Z,24.70
2017-08-23T18:42:52.852Z,24.70
2017-08-23T18:45:20.271Z,24.70
2017-08-23T18:47:48.371Z,24.60
2017-08-23T18:50:15.846Z,24.60
2017-08-23T18:52:43.320Z,24.50
2017-08-23T18:55:10.827Z,24.50
2017-08-23T18:57:38.318Z,24.40
2017-08-23T19:00:05.821Z,24.30
2017-08-23T19:02:33.321Z,24.20
2017-08-23T19:05:00.716Z,24.20
2017-08-23T19:07:28.175Z,24.10
2017-08-23T19:09:55.619Z,24.00
2017-08-23T19:12:23.138Z,24.00
2017-08-23T19:14:50.608Z,23.90
2017-08-23T19:17:18.065Z,23.90
2017-08-23T19:19:45.556Z,23.80
2017-08-23T19:22:13.083Z,23.80
2017-08-23T19:24:42.130Z,23.70
2017-08-23T19:27:09.872Z,23.70
2017-08-23T19:29:37.333Z,23.60
2017-08-23T19:32:06.050Z,23.60
2017-08-23T19:34:33.689Z,23.50
2017-08-23T19:37:01.348Z,23.40
2017-08-23T19:39:29.300Z,23.40
2017-08-23T19:41:56.975Z,23.30
2017-08-23T19:44:24.418Z,23.30
2017-08-23T19:46:51.948Z,23.30
2017-08-23T19:49:19.423Z,23.20
2017-08-23T19:51:46.869Z,23.20
2017-08-23T19:54:14.473Z,23.10
2017-08-23T19:56:42.025Z,23.10
2017-08-23T19:59:09.616Z,23.10
2017-08-23T20:01:37.325Z,23.00
2017-08-23T20:04:04.773Z,23.00
2017-08-23T20:06:32.195Z,22.90
2017-08-23T20:08:59.640Z,22.90
2017-08-23T20:11:27.072Z,22.80
2017-08-23T20:13:54.546Z,22.80
2017-08-23T20:16:21.980Z,22.70
2017-08-23T20:18:49.437Z,22.70
2017-08-23T20:21:16.864Z,22.60
2017-08-23T20:23:44.457Z,22.60
2017-08-23T20:26:11.858Z,22.60
2017-08-23T20:28:39.363Z,22.50
2017-08-23T20:31:07.165Z,22.50
2017-08-23T20:33:34.597Z,22.40
2017-08-23T20:36:02.036Z,22.30
2017-08-23T20:38:29.642Z,22.30
2017-08-23T20:40:57.076Z,22.20
2017-08-23T20:43:24.595Z,22.20
2017-08-23T20:45:52.030Z,22.10
2017-08-23T20:48:19.496Z,22.00
2017-08-23T20:50:46.996Z,22.00
2017-08-23T20:53:15.155Z,22.00
2017-08-23T20:55:42.563Z,21.90
2017-08-23T20:58:10.058Z,21.90
2017-08-23T21:00:37.552Z,21.90
2017-08-23T21:03:04.972Z,21.80
2017-08-23T21:05:32.701Z,21.80
2017-08-23T21:08:00.299Z,21.80
2017-08-23T21:10:27.712Z,21.70
2017-08-23T21:12:55.168Z,21.70
2017-08-23T21:15:22.601Z,21.70
2017-08-23T21:17:50.024Z,21.60
2017-08-23T21:20:17.552Z,21.60
2017-08-23T21:22:44.958Z,21.60
2017-08-23T21:25:12.393Z,21.50
2017-08-23T21:27:39.956Z,21.40
2017-08-23T21:30:09.572Z,21.40
2017-08-23T21:32:37.289Z,21.30
2017-08-23T21:35:04.772Z,21.30
2017-08-23T21:37:32.209Z,21.30
2017-08-23T21:39:59.710Z,21.30
2017-08-23T21:42:27.227Z,21.20
2017-08-23T21:44:54.702Z,21.20
2017-08-23T21:47:22.220Z,21.20
2017-08-23T21:49:49.883Z,21.10
2017-08-23T21:52:17.382Z,21.10
2017-08-23T21:54:44.823Z,21.00
2017-08-23T21:57:12.354Z,21.00
2017-08-23T21:59:39.781Z,21.00
2017-08-23T22:02:07.557Z,21.00
2017-08-23T22:04:35.044Z,21.00
2017-08-23T22:07:02.548Z,21.00
2017-08-23T22:09:29.995Z,21.00
2017-08-23T22:11:57.448Z,20.90
2017-08-23T22:14:25.193Z,20.90
2017-08-23T22:16:52.656Z,20.80
2017-08-23T22:19:20.127Z,20.80
2017-08-23T22:21:47.585Z,20.70
2017-08-23T22:24:15.019Z,20.70
2017-08-23T22:26:42.506Z,20.70
2017-08-23T22:29:09.944Z,20.70
2017-08-23T22:31:37.483Z,20.70
2017-08-23T22:34:04.972Z,20.70
2017-08-23T22:36:32.467Z,20.70
2017-08-23T22:39:00.195Z,20.70
2017-08-23T22:41:27.698Z,20.70
2017-08-23T22:43:55.684Z,20.70
2017-08-23T22:46:23.150Z,20.70
2017-08-23T22:48:50.610Z,20.60
2017-08-23T22:51:18.434Z,20.60
2017-08-23T22:53:45.852Z,20.60
2017-08-23T22:56:13.337Z,20.60
2017-08-23T22:58:40.833Z,20.60
2017-08-23T23:01:08.261Z,20.50
2017-08-23T23:03:35.733Z,20.50
2017-08-23T23:06:03.190Z,20.50
2017-08-23T23:08:30.715Z,20.50
2017-08-23T23:10:58.527Z,20.50
2017-08-23T23:13:26.004Z,20.40
2017-08-23T23:15:53.526Z,20.30
2017-08-23T23:18:20.988Z,20.30
2017-08-23T23:20:48.460Z,20.30
2017-08-23T23:23:15.960Z,20.30
2017-08-23T23:25:43.432Z,20.20
2017-08-23T23:28:10.900Z,20.20
2017-08-23T23:30:38.430Z,20.20
2017-08-23T23:33:05.947Z,20.10
2017-08-23T23:35:33.894Z,20.10
2017-08-23T23:38:01.362Z,20.10
2017-08-23T23:40:28.855Z,20.00
2017-08-23T23:42:56.393Z,20.10
2017-08-23T23:45:23.850Z,20.00
2017-08-23T23:47:51.336Z,20.00
2017-08-23T23:50:18.850Z,20.00
2017-08-23T23:52:46.308Z,19.90
2017-08-23T23:55:13.754Z,19.90
2017-08-23T23:57:41.444Z,19.90
